Time;durP1;ratioP1;P1;durP2;ratioP2;P2;SDS_P1;SDS_P2;PMS_P1;PMS_P2;Temp;Humidity;BMP_temperature;BMP_pressure;BME280_temperature;BME280_humidity;BME280_pressure;Samples;Min_cycle;Max_cycle;Signal;HPM_P1;HPM_P2
2022/01/14 00:02:17;;;;;;;36.20;15.52;;;;;;;;;;5091710;28;20425;-85
2022/01/14 00:04:43;;;;;;;27.77;14.88;;;;;;;;;;5095224;28;20039;-85
2022/01/14 00:07:09;;;;;;;30.23;15.68;;;;;;;;;;5097048;28;20044;-84
2022/01/14 00:09:38;;;;;;;27.15;15.43;;;;;;;;;;5095344;28;20078;-85
2022/01/14 00:12:11;;;;;;;25.02;15.50;;;;;;;;;;5095678;28;20044;-85
2022/01/14 00:17:05;;;;;;;26.98;15.02;;;;;;;;;;5095653;28;20059;-86
2022/01/14 00:19:31;;;;;;;37.93;16.83;;;;;;;;;;5094933;28;20404;-85
2022/01/14 00:21:58;;;;;;;29.90;14.65;;;;;;;;;;5095561;28;20252;-85
2022/01/14 00:24:30;;;;;;;29.02;15.68;;;;;;;;;;5095149;28;20096;-86
2022/01/14 00:32:53;;;;;;;25.00;14.05;;;;;;;;;;5095499;28;20055;-86
2022/01/14 00:35:19;;;;;;;24.35;14.13;;;;;;;;;;5077951;28;20079;-86
2022/01/14 00:37:45;;;;;;;23.88;14.13;;;;;;;;;;5094831;28;20059;-86
2022/01/14 00:40:11;;;;;;;25.80;13.93;;;;;;;;;;5094693;28;20052;-85
2022/01/14 00:42:37;;;;;;;25.90;14.13;;;;;;;;;;5094769;28;20048;-86
2022/01/14 00:45:07;;;;;;;26.60;13.93;;;;;;;;;;5094601;28;20039;-86
2022/01/14 00:47:34;;;;;;;27.65;14.68;;;;;;;;;;5095092;28;20164;-86
2022/01/14 00:50:01;;;;;;;29.00;13.85;;;;;;;;;;5094728;28;20123;-86
2022/01/14 00:52:26;;;;;;;22.25;13.07;;;;;;;;;;5094953;28;20463;-86
2022/01/14 00:54:53;;;;;;;25.10;13.65;;;;;;;;;;5095936;28;20040;-85
2022/01/14 00:59:14;;;;;;;23.67;12.88;;;;;;;;;;5096086;28;20059;-86
2022/01/14 01:00:14;;;;;;;28.55;13.15;;;;;;;;;;5095451;28;20044;-85
2022/01/14 01:02:40;;;;;;;26.30;13.48;;;;;;;;;;5095696;28;20039;-86
2022/01/14 01:05:07;;;;;;;27.20;14.57;;;;;;;;;;5095745;28;20062;-86
2022/01/14 01:07:33;;;;;;;25.25;13.52;;;;;;;;;;5095866;28;20078;-85
2022/01/14 01:09:59;;;;;;;26.35;13.45;;;;;;;;;;5094584;28;20405;-86
2022/01/14 01:12:40;;;;;;;29.15;13.77;;;;;;;;;;5095784;28;20051;-85
2022/01/14 01:15:08;;;;;;;24.15;13.25;;;;;;;;;;5093377;28;20047;-86
2022/01/14 01:17:35;;;;;;;26.60;13.65;;;;;;;;;;5094217;28;20048;-86
2022/01/14 01:20:01;;;;;;;23.02;13.23;;;;;;;;;;5095422;28;20047;-85
2022/01/14 01:22:27;;;;;;;25.40;13.45;;;;;;;;;;5094303;28;20387;-85
2022/01/14 01:24:53;;;;;;;25.55;14.27;;;;;;;;;;5094058;28;20433;-86
2022/01/14 01:27:21;;;;;;;27.80;14.00;;;;;;;;;;5094280;28;20089;-86
2022/01/14 01:29:53;;;;;;;22.73;13.45;;;;;;;;;;5093806;28;20093;-85
2022/01/14 01:32:19;;;;;;;26.50;13.05;;;;;;;;;;5097132;28;20040;-86
2022/01/14 01:34:45;;;;;;;26.33;14.35;;;;;;;;;;5095183;28;20085;-86
2022/01/14 01:37:11;;;;;;;27.90;14.40;;;;;;;;;;5093647;28;20127;-85
2022/01/14 01:39:37;;;;;;;28.65;14.55;;;;;;;;;;5093540;28;20055;-85
2022/01/14 01:42:05;;;;;;;28.15;13.40;;;;;;;;;;5093739;28;20074;-85
2022/01/14 01:44:32;;;;;;;25.77;13.85;;;;;;;;;;5093450;28;20115;-86
2022/01/14 01:46:59;;;;;;;26.52;13.60;;;;;;;;;;5095135;28;20040;-87
2022/01/14 01:49:26;;;;;;;27.42;13.90;;;;;;;;;;5094957;28;20036;-84
2022/01/14 01:51:52;;;;;;;23.73;13.32;;;;;;;;;;5077218;28;20484;-85
2022/01/14 01:54:20;;;;;;;26.00;14.40;;;;;;;;;;5093353;28;20040;-86
2022/01/14 01:56:46;;;;;;;25.23;13.98;;;;;;;;;;5076545;28;20140;-85
2022/01/14 01:59:12;;;;;;;26.33;14.60;;;;;;;;;;5094655;28;20036;-86
2022/01/14 02:01:39;;;;;;;27.92;13.93;;;;;;;;;;5093333;28;20083;-85
2022/01/14 02:04:05;;;;;;;25.70;13.38;;;;;;;;;;5093023;28;20502;-86
2022/01/14 02:06:32;;;;;;;31.80;15.50;;;;;;;;;;5093479;28;20089;-85
2022/01/14 02:08:58;;;;;;;28.52;13.77;;;;;;;;;;5093179;28;20028;-86
2022/01/14 02:11:24;;;;;;;23.27;13.18;;;;;;;;;;5093413;28;20044;-86
2022/01/14 02:13:51;;;;;;;24.65;13.52;;;;;;;;;;5093079;28;20052;-85
2022/01/14 02:16:30;;;;;;;24.33;13.43;;;;;;;;;;5093098;28;20051;-85
2022/01/14 02:24:34;;;;;;;27.40;13.98;;;;;;;;;;5093902;28;20052;-86
2022/01/14 02:26:55;;;;;;;28.23;14.23;;;;;;;;;;5092991;28;20516;-86
2022/01/14 02:29:22;;;;;;;24.02;14.98;;;;;;;;;;5094062;28;20036;-85
2022/01/14 02:31:49;;;;;;;27.48;14.48;;;;;;;;;;5092778;28;20070;-86
2022/01/14 02:34:16;;;;;;;27.80;15.23;;;;;;;;;;5092486;28;20132;-87
2022/01/14 02:36:43;;;;;;;26.10;13.18;;;;;;;;;;5093981;28;20060;-85
2022/01/14 02:39:10;;;;;;;27.13;14.60;;;;;;;;;;5092807;28;20087;-85
2022/01/14 02:41:36;;;;;;;27.13;14.60;;;;;;;;;;5092526;28;20066;-87
2022/01/14 02:44:06;;;;;;;31.10;14.68;;;;;;;;;;5096524;28;20048;-85
2022/01/14 02:46:38;;;;;;;33.42;15.52;;;;;;;;;;5093758;28;20065;-86
2022/01/14 02:49:04;;;;;;;28.55;14.95;;;;;;;;;;5092725;28;20055;-86
2022/01/14 02:51:31;;;;;;;29.88;15.63;;;;;;;;;;5093479;28;20553;-86
2022/01/14 02:54:00;;;;;;;33.08;15.32;;;;;;;;;;5092323;28;20093;-86
2022/01/14 02:56:32;;;;;;;35.10;15.73;;;;;;;;;;5093499;28;20040;-87
2022/01/14 02:59:00;;;;;;;30.40;14.88;;;;;;;;;;5092859;28;20035;-86
2022/01/14 03:01:27;;;;;;;29.73;15.20;;;;;;;;;;5093205;28;20059;-87
2022/01/14 03:03:58;;;;;;;30.73;15.40;;;;;;;;;;5093575;28;20512;-85
2022/01/14 03:06:25;;;;;;;34.25;15.32;;;;;;;;;;5092019;28;20092;-85
2022/01/14 03:08:51;;;;;;;29.45;14.38;;;;;;;;;;5093669;28;20428;-86
2022/01/14 03:11:20;;;;;;;26.67;14.40;;;;;;;;;;5092180;28;20048;-85
2022/01/14 03:13:47;;;;;;;31.58;16.23;;;;;;;;;;5093294;28;20162;-86
2022/01/14 03:16:14;;;;;;;26.95;15.55;;;;;;;;;;5091843;28;20035;-86
2022/01/14 03:18:46;;;;;;;30.08;15.18;;;;;;;;;;5093541;28;20112;-85
2022/01/14 03:21:16;;;;;;;29.33;15.23;;;;;;;;;;5091869;28;20075;-86
2022/01/14 03:23:46;;;;;;;28.35;15.40;;;;;;;;;;5093104;28;20040;-86
2022/01/14 03:26:16;;;;;;;27.35;14.68;;;;;;;;;;5091657;28;20036;-87
2022/01/14 03:28:43;;;;;;;30.92;16.08;;;;;;;;;;5093312;28;20028;-86
2022/01/14 03:31:09;;;;;;;29.42;15.57;;;;;;;;;;5091866;28;20491;-86
2022/01/14 03:33:36;;;;;;;28.75;14.75;;;;;;;;;;5092962;28;20380;-85
2022/01/14 03:36:03;;;;;;;29.23;15.27;;;;;;;;;;5092547;28;20505;-86
2022/01/14 03:38:29;;;;;;;27.38;16.20;;;;;;;;;;5092782;28;20401;-85
2022/01/14 03:40:55;;;;;;;28.55;16.55;;;;;;;;;;5092631;28;20048;-86
2022/01/14 03:43:21;;;;;;;29.65;15.75;;;;;;;;;;5093130;28;20552;-87
2022/01/14 03:45:50;;;;;;;30.67;16.27;;;;;;;;;;5091537;28;20051;-86
2022/01/14 03:48:16;;;;;;;31.35;16.52;;;;;;;;;;5091928;28;20081;-86
2022/01/14 03:50:42;;;;;;;27.50;15.40;;;;;;;;;;5091714;28;20048;-86
2022/01/14 03:53:11;;;;;;;27.15;16.05;;;;;;;;;;5092995;28;20055;-85
2022/01/14 03:55:38;;;;;;;31.27;15.50;;;;;;;;;;5074825;28;20066;-86
2022/01/14 03:58:04;;;;;;;30.75;16.15;;;;;;;;;;5091779;28;20050;-86
2022/01/14 04:00:30;;;;;;;31.00;15.70;;;;;;;;;;5091234;28;20044;-86
2022/01/14 04:02:57;;;;;;;26.85;14.30;;;;;;;;;;5094715;28;20036;-86
2022/01/14 04:05:22;;;;;;;30.15;15.18;;;;;;;;;;5091614;28;20392;-86
2022/01/14 04:07:48;;;;;;;28.70;15.23;;;;;;;;;;5091497;28;20032;-86
2022/01/14 04:10:15;;;;;;;30.02;16.08;;;;;;;;;;5091227;28;20055;-86
2022/01/14 04:17:56;;;;;;;25.90;15.93;;;;;;;;;;5091491;28;20047;-86
2022/01/14 04:20:22;;;;;;;30.25;15.10;;;;;;;;;;5091490;28;20048;-86
2022/01/14 04:22:48;;;;;;;26.25;15.70;;;;;;;;;;5091470;28;20032;-86
2022/01/14 04:25:14;;;;;;;29.17;15.15;;;;;;;;;;5092716;28;20040;-85
2022/01/14 04:27:40;;;;;;;35.28;15.70;;;;;;;;;;5092540;28;20047;-86
2022/01/14 04:30:07;;;;;;;29.60;15.57;;;;;;;;;;5092776;28;20036;-86
2022/01/14 04:32:33;;;;;;;28.75;14.10;;;;;;;;;;5091052;28;20192;-86
2022/01/14 04:34:59;;;;;;;30.83;15.23;;;;;;;;;;5091244;28;20199;-86
2022/01/14 04:37:24;;;;;;;28.27;15.30;;;;;;;;;;5090909;28;20056;-86
2022/01/14 04:39:50;;;;;;;27.17;15.85;;;;;;;;;;5091089;28;20093;-86
2022/01/14 04:42:16;;;;;;;27.75;15.88;;;;;;;;;;5092470;28;20028;-87
2022/01/14 04:44:42;;;;;;;29.83;15.98;;;;;;;;;;5091030;28;20118;-86
2022/01/14 04:47:30;;;;;;;35.00;17.38;;;;;;;;;;5092129;28;20119;-86
2022/01/14 04:49:56;;;;;;;27.52;14.65;;;;;;;;;;5093806;28;20066;-85
2022/01/14 04:52:22;;;;;;;31.13;17.20;;;;;;;;;;5095747;28;20038;-86
2022/01/14 04:54:48;;;;;;;27.55;15.88;;;;;;;;;;5098683;28;20076;-86
2022/01/14 04:57:16;;;;;;;34.92;16.88;;;;;;;;;;5094533;28;20543;-86
2022/01/14 04:59:46;;;;;;;33.97;16.02;;;;;;;;;;5094842;28;20039;-86
2022/01/14 05:02:12;;;;;;;32.55;17.50;;;;;;;;;;5077438;28;20092;-87
2022/01/14 05:04:39;;;;;;;32.90;17.02;;;;;;;;;;5095693;28;20047;-86
2022/01/14 05:07:05;;;;;;;29.23;16.60;;;;;;;;;;5094233;28;20080;-87
2022/01/14 05:09:38;;;;;;;34.15;17.88;;;;;;;;;;5095941;28;20107;-86
2022/01/14 05:12:07;;;;;;;35.88;17.10;;;;;;;;;;5094178;28;20052;-85
2022/01/14 05:14:34;;;;;;;30.27;16.77;;;;;;;;;;5095767;28;20044;-86
2022/01/14 05:17:00;;;;;;;28.30;16.15;;;;;;;;;;5096782;28;20055;-87
2022/01/14 05:19:27;;;;;;;31.25;18.02;;;;;;;;;;5077631;28;20040;-86
2022/01/14 05:21:53;;;;;;;29.80;17.33;;;;;;;;;;5093922;28;20137;-86
2022/01/14 05:24:19;;;;;;;33.25;19.00;;;;;;;;;;5095579;28;20036;-85
2022/01/14 05:26:45;;;;;;;34.25;17.58;;;;;;;;;;5093884;28;20431;-86
2022/01/14 05:29:11;;;;;;;33.75;17.80;;;;;;;;;;5094279;28;20050;-86
2022/01/14 05:31:52;;;;;;;34.53;17.67;;;;;;;;;;5095232;28;20109;-87
2022/01/14 05:34:18;;;;;;;27.90;17.13;;;;;;;;;;5093904;28;20487;-86
2022/01/14 05:36:44;;;;;;;37.20;18.00;;;;;;;;;;5093489;28;20106;-85
2022/01/14 05:39:11;;;;;;;34.17;18.48;;;;;;;;;;5093805;28;20491;-86
2022/01/14 05:41:37;;;;;;;33.92;18.50;;;;;;;;;;5093587;28;20460;-85
2022/01/14 05:44:04;;;;;;;30.48;18.23;;;;;;;;;;5093863;28;20054;-86
2022/01/14 05:46:31;;;;;;;35.88;18.63;;;;;;;;;;5093422;28;20040;-86
2022/01/14 05:48:57;;;;;;;31.75;17.17;;;;;;;;;;5093611;28;20043;-86
2022/01/14 05:51:23;;;;;;;36.38;18.33;;;;;;;;;;5093714;28;20048;-84
2022/01/14 05:53:49;;;;;;;28.02;16.77;;;;;;;;;;5093495;28;20447;-85
2022/01/14 05:56:15;;;;;;;33.90;16.73;;;;;;;;;;5094562;28;20044;-86
2022/01/14 05:58:41;;;;;;;31.20;17.98;;;;;;;;;;5093481;28;20108;-85
2022/01/14 06:01:07;;;;;;;29.02;17.52;;;;;;;;;;5093183;28;20355;-85
2022/01/14 06:03:33;;;;;;;35.67;17.95;;;;;;;;;;5093056;28;20040;-84
2022/01/14 06:05:59;;;;;;;29.10;16.42;;;;;;;;;;5093516;28;20047;-85
2022/01/14 06:08:24;;;;;;;30.95;17.27;;;;;;;;;;5093218;28;20044;-85
2022/01/14 06:10:50;;;;;;;31.67;17.80;;;;;;;;;;5093218;28;20075;-86
2022/01/14 06:13:16;;;;;;;30.23;17.08;;;;;;;;;;5076003;28;20372;-85
2022/01/14 06:15:42;;;;;;;31.20;18.10;;;;;;;;;;5094411;28;20063;-86
2022/01/14 06:18:08;;;;;;;28.42;16.73;;;;;;;;;;5093002;28;20078;-85
2022/01/14 06:20:34;;;;;;;31.17;18.00;;;;;;;;;;5094269;28;20036;-85
2022/01/14 06:23:00;;;;;;;32.75;17.20;;;;;;;;;;5093986;28;20505;-85
2022/01/14 06:25:26;;;;;;;31.98;17.48;;;;;;;;;;5094165;28;20036;-86
2022/01/14 06:27:52;;;;;;;30.65;16.83;;;;;;;;;;5094138;28;20066;-85
2022/01/14 06:30:18;;;;;;;29.90;17.98;;;;;;;;;;5095893;28;20559;-85
2022/01/14 06:32:44;;;;;;;33.35;17.33;;;;;;;;;;5093876;28;20560;-85
2022/01/14 06:35:14;;;;;;;26.83;16.90;;;;;;;;;;5094268;28;20043;-87
2022/01/14 06:37:41;;;;;;;32.42;17.30;;;;;;;;;;5093586;28;20091;-86
2022/01/14 06:40:08;;;;;;;32.55;16.45;;;;;;;;;;5092923;28;20039;-87
2022/01/14 06:42:34;;;;;;;35.15;17.33;;;;;;;;;;5092410;28;20115;-86
2022/01/14 06:45:00;;;;;;;31.85;16.55;;;;;;;;;;5092602;28;20119;-85
2022/01/14 06:47:26;;;;;;;27.88;16.92;;;;;;;;;;5092353;28;20464;-86
2022/01/14 06:49:52;;;;;;;39.63;17.90;;;;;;;;;;5092922;28;20043;-85
2022/01/14 06:52:18;;;;;;;31.55;17.20;;;;;;;;;;5093665;28;20040;-86
2022/01/14 06:54:44;;;;;;;32.97;17.77;;;;;;;;;;5092632;28;20446;-85
2022/01/14 06:57:11;;;;;;;29.13;16.60;;;;;;;;;;5092251;28;20487;-87
2022/01/14 06:59:36;;;;;;;33.70;16.75;;;;;;;;;;5092567;28;20115;-86
2022/01/14 07:02:03;;;;;;;31.65;16.33;;;;;;;;;;5091996;28;20123;-85
2022/01/14 07:04:29;;;;;;;25.38;15.43;;;;;;;;;;5092186;28;20036;-87
2022/01/14 07:06:55;;;;;;;29.38;15.60;;;;;;;;;;5092325;28;20051;-85
2022/01/14 07:09:21;;;;;;;29.48;16.30;;;;;;;;;;5092131;28;20046;-86
2022/01/14 07:11:52;;;;;;;29.70;16.00;;;;;;;;;;5093405;28;20122;-85
2022/01/14 07:14:19;;;;;;;26.35;15.80;;;;;;;;;;5074600;28;20078;-85
2022/01/14 07:16:47;;;;;;;32.00;17.48;;;;;;;;;;5092276;28;20114;-85
2022/01/14 07:19:13;;;;;;;34.42;16.13;;;;;;;;;;5091880;28;20079;-86
2022/01/14 07:21:40;;;;;;;27.70;16.00;;;;;;;;;;5093127;28;20538;-86
2022/01/14 07:24:06;;;;;;;27.38;15.02;;;;;;;;;;5091589;28;20058;-86
2022/01/14 07:26:32;;;;;;;29.20;15.57;;;;;;;;;;5091819;28;20073;-85
2022/01/14 07:28:59;;;;;;;28.30;15.57;;;;;;;;;;5091651;28;20074;-85
2022/01/14 07:31:24;;;;;;;27.92;16.38;;;;;;;;;;5074897;28;20040;-86
2022/01/14 07:33:50;;;;;;;34.92;15.88;;;;;;;;;;5093020;28;20043;-86
2022/01/14 07:36:17;;;;;;;26.10;13.70;;;;;;;;;;5091893;28;20059;-86
2022/01/14 07:38:43;;;;;;;27.88;14.40;;;;;;;;;;5091772;28;20116;-86
2022/01/14 07:41:09;;;;;;;27.05;14.23;;;;;;;;;;5091675;28;20479;-86
2022/01/14 07:43:35;;;;;;;26.73;14.93;;;;;;;;;;5092633;28;20037;-85
2022/01/14 07:46:02;;;;;;;26.77;13.77;;;;;;;;;;5091652;28;20109;-86
2022/01/14 07:48:28;;;;;;;25.13;13.88;;;;;;;;;;5091444;28;20047;-87
2022/01/14 07:50:54;;;;;;;25.35;14.80;;;;;;;;;;5094939;28;20040;-87
2022/01/14 07:53:20;;;;;;;26.80;14.00;;;;;;;;;;5091325;28;20123;-88
2022/01/14 07:55:46;;;;;;;29.52;14.20;;;;;;;;;;5091876;28;20093;-87
2022/01/14 07:58:12;;;;;;;28.98;13.23;;;;;;;;;;5092828;28;20124;-87
2022/01/14 08:00:39;;;;;;;26.20;13.73;;;;;;;;;;5092914;28;20048;-86
2022/01/14 08:03:05;;;;;;;27.90;13.10;;;;;;;;;;5091498;28;20044;-86
2022/01/14 08:05:31;;;;;;;26.30;14.10;;;;;;;;;;5092606;28;20484;-87
2022/01/14 08:08:03;;;;;;;26.90;14.00;;;;;;;;;;5092465;28;20388;-87
2022/01/14 08:10:29;;;;;;;31.10;13.85;;;;;;;;;;5091616;28;20076;-86
2022/01/14 08:12:55;;;;;;;25.88;13.80;;;;;;;;;;5091283;28;20461;-86
2022/01/14 08:15:21;;;;;;;27.45;13.52;;;;;;;;;;5092957;28;20047;-87
2022/01/14 08:17:47;;;;;;;27.50;13.15;;;;;;;;;;5092420;28;20391;-86
2022/01/14 08:20:13;;;;;;;31.15;13.45;;;;;;;;;;5091218;28;20044;-86
2022/01/14 08:22:39;;;;;;;29.20;13.70;;;;;;;;;;5090979;28;20036;-85
2022/01/14 08:25:05;;;;;;;26.85;13.18;;;;;;;;;;5093910;28;20042;-86
2022/01/14 08:27:31;;;;;;;29.70;13.00;;;;;;;;;;5095496;28;20040;-85
2022/01/14 08:29:57;;;;;;;28.20;12.52;;;;;;;;;;5095016;28;20100;-85
2022/01/14 08:32:23;;;;;;;27.42;13.10;;;;;;;;;;5096369;28;20113;-86
2022/01/14 08:34:49;;;;;;;26.13;13.10;;;;;;;;;;5094791;28;20475;-86
2022/01/14 08:37:15;;;;;;;21.98;11.10;;;;;;;;;;5096378;28;20135;-86
2022/01/14 08:39:41;;;;;;;25.92;12.50;;;;;;;;;;5094803;28;20076;-86
2022/01/14 08:42:09;;;;;;;24.95;11.85;;;;;;;;;;5094964;28;20036;-86
2022/01/14 08:44:38;;;;;;;24.67;12.18;;;;;;;;;;5094556;28;20112;-86
2022/01/14 08:47:09;;;;;;;23.15;11.90;;;;;;;;;;5094840;28;20407;-85
2022/01/14 08:49:38;;;;;;;21.48;10.77;;;;;;;;;;5094985;28;20383;-87
2022/01/14 08:52:04;;;;;;;23.67;11.82;;;;;;;;;;5094859;28;20055;-87
2022/01/14 08:54:30;;;;;;;25.48;10.50;;;;;;;;;;5094430;28;20044;-86
2022/01/14 08:56:56;;;;;;;28.63;11.60;;;;;;;;;;5094766;28;20040;-88
2022/01/14 08:59:23;;;;;;;19.98;10.63;;;;;;;;;;5095939;28;20044;-86
2022/01/14 09:01:49;;;;;;;20.33;9.88;;;;;;;;;;5095711;28;20044;-86
2022/01/14 09:04:15;;;;;;;23.17;10.73;;;;;;;;;;5094292;28;20131;-86
2022/01/14 09:06:41;;;;;;;21.65;10.48;;;;;;;;;;5095639;28;20086;-86
2022/01/14 09:09:08;;;;;;;19.77;9.57;;;;;;;;;;5097722;28;20083;-86
2022/01/14 09:11:34;;;;;;;21.30;10.10;;;;;;;;;;5095900;28;20040;-86
2022/01/14 09:14:00;;;;;;;25.58;10.70;;;;;;;;;;5095226;28;20488;-86
2022/01/14 09:16:26;;;;;;;19.90;9.75;;;;;;;;;;5095440;28;20065;-86
2022/01/14 09:18:52;;;;;;;22.63;9.57;;;;;;;;;;5094101;28;20075;-86
2022/01/14 09:21:19;;;;;;;20.88;9.20;;;;;;;;;;5095524;28;20043;-87
2022/01/14 09:23:51;;;;;;;21.67;9.55;;;;;;;;;;5093803;28;20051;-86
2022/01/14 09:26:18;;;;;;;22.73;8.63;;;;;;;;;;5095234;28;20510;-86
2022/01/14 09:28:44;;;;;;;19.85;9.20;;;;;;;;;;5093802;28;20073;-87
2022/01/14 09:31:10;;;;;;;19.05;9.23;;;;;;;;;;5093941;28;20050;-86
2022/01/14 09:33:37;;;;;;;19.60;8.65;;;;;;;;;;5095109;28;20040;-86
2022/01/14 09:36:04;;;;;;;18.95;8.45;;;;;;;;;;5094670;28;20043;-87
2022/01/14 09:38:30;;;;;;;19.88;8.07;;;;;;;;;;5093672;28;20059;-86
2022/01/14 09:40:57;;;;;;;17.63;7.53;;;;;;;;;;5094949;28;20040;-87
2022/01/14 09:43:23;;;;;;;16.60;7.68;;;;;;;;;;5093637;28;20176;-88
2022/01/14 09:45:53;;;;;;;18.20;7.85;;;;;;;;;;5094789;28;20040;-87
2022/01/14 09:48:19;;;;;;;24.23;8.35;;;;;;;;;;5093686;28;20044;-88
2022/01/14 09:50:45;;;;;;;18.88;7.05;;;;;;;;;;5093618;28;20048;-87
2022/01/14 09:53:12;;;;;;;16.92;6.57;;;;;;;;;;5095036;28;20047;-86
2022/01/14 09:55:38;;;;;;;18.10;7.65;;;;;;;;;;5093654;28;20048;-86
2022/01/14 09:58:04;;;;;;;15.05;6.95;;;;;;;;;;5076827;28;20456;-86
2022/01/14 10:00:30;;;;;;;17.92;6.63;;;;;;;;;;5093192;28;20051;-88
2022/01/14 10:02:56;;;;;;;21.10;6.60;;;;;;;;;;5093306;28;20543;-87
2022/01/14 10:05:33;;;;;;;17.80;6.50;;;;;;;;;;5093093;28;20352;-87
2022/01/14 10:08:14;;;;;;;21.33;6.45;;;;;;;;;;5094746;28;20036;-89
2022/01/14 10:10:43;;;;;;;14.85;5.50;;;;;;;;;;5094383;28;20048;-87
2022/01/14 10:13:15;;;;;;;20.20;5.95;;;;;;;;;;5093032;28;20399;-87
2022/01/14 10:15:48;;;;;;;13.13;5.15;;;;;;;;;;5092912;28;20047;-87
2022/01/14 10:18:15;;;;;;;14.23;5.63;;;;;;;;;;5094532;28;20395;-86
2022/01/14 10:20:41;;;;;;;14.18;5.20;;;;;;;;;;5092765;28;20048;-89
2022/01/14 10:23:07;;;;;;;18.15;5.78;;;;;;;;;;5092755;28;20121;-86
2022/01/14 10:25:33;;;;;;;13.32;5.00;;;;;;;;;;5093951;28;20082;-86
2022/01/14 10:27:59;;;;;;;14.90;4.90;;;;;;;;;;5092927;28;20068;-86
2022/01/14 10:30:31;;;;;;;20.35;5.38;;;;;;;;;;5092802;28;20123;-86
2022/01/14 10:33:02;;;;;;;17.17;4.97;;;;;;;;;;5075984;28;20491;-87
2022/01/14 10:35:30;;;;;;;14.05;4.90;;;;;;;;;;5092479;28;20435;-86
2022/01/14 10:37:59;;;;;;;16.77;4.28;;;;;;;;;;5094970;28;20135;-86
2022/01/14 10:40:25;;;;;;;11.65;3.92;;;;;;;;;;5092320;28;20051;-87
2022/01/14 10:42:59;;;;;;;16.13;4.57;;;;;;;;;;5092886;28;20044;-86
2022/01/14 10:45:27;;;;;;;14.82;4.43;;;;;;;;;;5092716;28;20506;-85
2022/01/14 10:48:14;;;;;;;11.68;3.63;;;;;;;;;;5092035;28;20040;-87
2022/01/14 10:50:41;;;;;;;15.70;4.03;;;;;;;;;;5092470;28;20071;-87
2022/01/14 10:53:12;;;;;;;14.20;3.85;;;;;;;;;;5092406;28;20123;-86
2022/01/14 10:55:43;;;;;;;14.95;3.40;;;;;;;;;;5092353;28;20044;-86
2022/01/14 10:58:15;;;;;;;16.73;3.30;;;;;;;;;;5093703;28;20040;-87
2022/01/14 11:00:46;;;;;;;14.30;4.15;;;;;;;;;;5090803;28;20562;-87
2022/01/14 11:03:12;;;;;;;13.63;4.18;;;;;;;;;;5092505;28;20105;-87
2022/01/14 11:05:38;;;;;;;15.57;4.07;;;;;;;;;;5093495;28;20036;-86
2022/01/14 11:08:05;;;;;;;13.00;3.42;;;;;;;;;;5093595;28;20461;-85
2022/01/14 11:10:33;;;;;;;12.43;3.03;;;;;;;;;;5091884;28;20040;-87
2022/01/14 11:13:01;;;;;;;9.95;3.15;;;;;;;;;;5075119;28;20074;-86
2022/01/14 11:15:27;;;;;;;14.77;3.47;;;;;;;;;;5093325;28;20088;-86
2022/01/14 11:17:55;;;;;;;11.63;3.45;;;;;;;;;;5093602;28;20174;-86
2022/01/14 11:20:30;;;;;;;17.02;3.47;;;;;;;;;;5091976;28;20124;-87
2022/01/14 11:23:15;;;;;;;14.57;3.50;;;;;;;;;;5075334;28;20047;-86
2022/01/14 11:25:44;;;;;;;12.48;3.15;;;;;;;;;;5091758;28;20437;-87
2022/01/14 11:28:10;;;;;;;13.32;2.95;;;;;;;;;;5092539;28;20043;-87
2022/01/14 11:30:38;;;;;;;10.45;2.67;;;;;;;;;;5091923;28;20075;-87
2022/01/14 11:33:05;;;;;;;14.35;3.53;;;;;;;;;;5092040;28;20047;-86
2022/01/14 11:35:32;;;;;;;13.93;2.88;;;;;;;;;;5092029;28;20187;-86
2022/01/14 11:37:58;;;;;;;18.27;3.45;;;;;;;;;;5092832;28;20083;-86
2022/01/14 11:40:24;;;;;;;14.90;3.40;;;;;;;;;;5092993;28;20048;-86
2022/01/14 11:42:59;;;;;;;13.35;3.72;;;;;;;;;;5092926;28;20044;-86
2022/01/14 11:45:44;;;;;;;12.10;3.55;;;;;;;;;;5091503;28;20054;-85
2022/01/14 11:48:28;;;;;;;13.63;3.38;;;;;;;;;;5091633;28;20119;-85
2022/01/14 11:50:59;;;;;;;15.57;3.58;;;;;;;;;;5094309;28;20082;-86
2022/01/14 11:53:39;;;;;;;13.05;3.58;;;;;;;;;;5091611;28;20047;-83
2022/01/14 11:56:07;;;;;;;20.02;3.35;;;;;;;;;;5091541;28;20107;-87
2022/01/14 11:58:33;;;;;;;12.98;3.42;;;;;;;;;;5093322;28;20051;-87
2022/01/14 12:00:59;;;;;;;20.15;4.68;;;;;;;;;;5095730;28;20044;-86
2022/01/14 12:03:28;;;;;;;18.85;3.95;;;;;;;;;;5095938;28;20527;-87
2022/01/14 12:06:05;;;;;;;15.57;3.55;;;;;;;;;;5095531;28;20487;-86
2022/01/14 12:08:32;;;;;;;16.10;3.70;;;;;;;;;;5097027;28;20396;-86
2022/01/14 12:10:59;;;;;;;15.70;3.63;;;;;;;;;;5095362;28;20036;-86
2022/01/14 12:13:41;;;;;;;16.50;4.00;;;;;;;;;;5095448;28;20119;-86
2022/01/14 12:16:35;;;;;;;12.05;3.90;;;;;;;;;;5078356;28;20036;-86
2022/01/14 12:19:02;;;;;;;12.57;3.83;;;;;;;;;;5096905;28;20478;-86
2022/01/14 12:21:40;;;;;;;14.45;4.60;;;;;;;;;;5095146;28;20204;-86
2022/01/14 12:24:16;;;;;;;13.48;3.95;;;;;;;;;;5095540;28;20245;-86
2022/01/14 12:26:42;;;;;;;17.45;4.63;;;;;;;;;;5095314;28;20433;-85
2022/01/14 12:29:09;;;;;;;14.80;3.65;;;;;;;;;;5096493;28;20359;-87
2022/01/14 12:31:55;;;;;;;16.05;4.07;;;;;;;;;;5095020;28;20388;-86
2022/01/14 12:34:21;;;;;;;20.40;3.90;;;;;;;;;;5095006;28;20044;-86
2022/01/14 12:36:47;;;;;;;11.35;3.50;;;;;;;;;;5096118;28;20121;-86
2022/01/14 12:39:14;;;;;;;14.85;3.55;;;;;;;;;;5096531;28;20035;-86
2022/01/14 12:41:40;;;;;;;14.30;4.65;;;;;;;;;;5094792;28;20066;-86
2022/01/14 12:44:06;;;;;;;20.67;4.55;;;;;;;;;;5096139;28;20475;-86
2022/01/14 12:49:02;;;;;;;14.10;5.20;;;;;;;;;;5094761;28;20040;-86
2022/01/14 12:51:29;;;;;;;16.00;5.10;;;;;;;;;;5094715;28;20101;-86
2022/01/14 12:53:59;;;;;;;20.17;4.07;;;;;;;;;;5094704;28;20059;-87
2022/01/14 12:56:27;;;;;;;15.13;3.92;;;;;;;;;;5094525;28;20051;-86
2022/01/14 12:58:55;;;;;;;13.57;4.00;;;;;;;;;;5094909;28;20047;-87
2022/01/14 13:01:28;;;;;;;16.38;4.50;;;;;;;;;;5094385;28;20093;-86
2022/01/14 13:03:55;;;;;;;16.73;4.97;;;;;;;;;;5095785;28;20044;-86
2022/01/14 13:06:21;;;;;;;11.77;4.47;;;;;;;;;;5097044;28;20058;-86
2022/01/14 13:08:57;;;;;;;12.27;4.22;;;;;;;;;;5094466;28;20119;-86
2022/01/14 13:11:23;;;;;;;19.58;4.40;;;;;;;;;;5094571;28;20040;-85
2022/01/14 13:14:00;;;;;;;14.80;4.90;;;;;;;;;;5094470;28;20051;-85
2022/01/14 13:16:26;;;;;;;18.40;4.50;;;;;;;;;;5095384;28;20124;-85
2022/01/14 13:18:54;;;;;;;18.52;4.82;;;;;;;;;;5077393;28;20392;-86
2022/01/14 13:21:20;;;;;;;14.68;4.78;;;;;;;;;;5093988;28;20071;-86
2022/01/14 13:23:47;;;;;;;16.80;4.97;;;;;;;;;;5094173;28;20510;-85
2022/01/14 13:26:13;;;;;;;16.45;4.47;;;;;;;;;;5095354;28;20035;-85
2022/01/14 13:28:39;;;;;;;18.70;5.13;;;;;;;;;;5094273;28;20131;-86
2022/01/14 13:31:08;;;;;;;14.68;5.05;;;;;;;;;;5095379;28;20048;-85
2022/01/14 13:33:36;;;;;;;16.50;4.47;;;;;;;;;;5093866;28;20044;-85
2022/01/14 13:36:03;;;;;;;15.82;4.78;;;;;;;;;;5076707;28;20044;-85
2022/01/14 13:38:28;;;;;;;17.27;4.50;;;;;;;;;;5093887;28;20101;-86
2022/01/14 13:40:57;;;;;;;15.85;4.22;;;;;;;;;;5093903;28;20044;-86
2022/01/14 13:43:29;;;;;;;17.48;4.40;;;;;;;;;;5094925;28;20040;-86
2022/01/14 13:46:06;;;;;;;18.70;4.25;;;;;;;;;;5093578;28;20044;-87
2022/01/14 13:48:40;;;;;;;16.38;4.30;;;;;;;;;;5095244;28;20040;-87
2022/01/14 13:51:07;;;;;;;16.15;4.93;;;;;;;;;;5093797;28;20131;-86
2022/01/14 13:53:38;;;;;;;15.95;5.28;;;;;;;;;;5093691;28;20369;-86
2022/01/14 13:56:05;;;;;;;15.55;5.30;;;;;;;;;;5094878;28;20051;-87
2022/01/14 13:58:32;;;;;;;15.18;4.75;;;;;;;;;;5093403;28;20036;-86
2022/01/14 14:01:02;;;;;;;16.83;4.90;;;;;;;;;;5094652;28;20055;-87
2022/01/14 14:03:42;;;;;;;25.10;5.60;;;;;;;;;;5093367;28;20044;-86
2022/01/14 14:06:13;;;;;;;17.50;4.93;;;;;;;;;;5093366;28;20475;-86
2022/01/14 14:16:43;;;;;;;13.43;4.90;;;;;;;;;;5097493;28;20550;-86
2022/01/14 14:19:09;;;;;;;20.88;5.63;;;;;;;;;;5093312;28;20395;-86
2022/01/14 14:21:35;;;;;;;22.83;5.43;;;;;;;;;;5093974;28;20048;-86
2022/01/14 14:24:03;;;;;;;19.65;5.28;;;;;;;;;;5094400;28;20043;-85
2022/01/14 14:26:30;;;;;;;23.42;5.80;;;;;;;;;;5092715;28;20047;-86
2022/01/14 14:29:20;;;;;;;18.85;5.72;;;;;;;;;;5094067;28;20040;-86
2022/01/14 14:31:46;;;;;;;17.35;5.95;;;;;;;;;;5092777;28;20123;-86
2022/01/14 14:34:12;;;;;;;17.83;5.05;;;;;;;;;;5092602;28;20094;-86
2022/01/14 14:36:39;;;;;;;26.23;6.00;;;;;;;;;;5092352;28;20062;-85
2022/01/14 14:39:05;;;;;;;17.02;5.85;;;;;;;;;;5092997;28;20080;-86
2022/01/14 14:41:32;;;;;;;20.23;5.93;;;;;;;;;;5092259;28;20051;-86
2022/01/14 14:43:58;;;;;;;18.67;5.07;;;;;;;;;;5092521;28;20076;-86
2022/01/14 14:46:24;;;;;;;21.65;5.97;;;;;;;;;;5092533;28;20105;-87
2022/01/14 14:48:52;;;;;;;19.02;5.85;;;;;;;;;;5092274;28;20089;-86
2022/01/14 14:51:18;;;;;;;26.33;7.10;;;;;;;;;;5092501;28;20054;-87
2022/01/14 14:53:44;;;;;;;20.00;6.60;;;;;;;;;;5092373;28;20036;-86
2022/01/14 14:56:10;;;;;;;22.58;6.35;;;;;;;;;;5093584;28;20065;-86